sensor_id;sensor_type;location;lat;lon;timestamp;P1;durP1;ratioP1;P2;durP2;ratioP2
22652;SDS011;11493;43.344;26.226;2023-05-07T00:02:17;7.75;;;4.82;;
22652;SDS011;11493;43.344;26.226;2023-05-07T00:04:44;7.22;;;4.25;;
22652;SDS011;11493;43.344;26.226;2023-05-07T00:07:12;5.10;;;4.40;;
22652;SDS011;11493;43.344;26.226;2023-05-07T00:09:39;6.85;;;4.03;;
22652;SDS011;11493;43.344;26.226;2023-05-07T00:12:06;5.90;;;4.63;;
22652;SDS011;11493;43.344;26.226;2023-05-07T00:14:34;11.57;;;3.78;;
22652;SDS011;11493;43.344;26.226;2023-05-07T00:17:01;5.13;;;4.35;;
22652;SDS011;11493;43.344;26.226;2023-05-07T00:19:28;14.73;;;4.45;;
22652;SDS011;11493;43.344;26.226;2023-05-07T00:21:55;4.13;;;3.72;;
22652;SDS011;11493;43.344;26.226;2023-05-07T00:24:22;11.93;;;5.10;;
22652;SDS011;11493;43.344;26.226;2023-05-07T00:26:49;5.28;;;3.78;;
22652;SDS011;11493;43.344;26.226;2023-05-07T00:29:16;9.38;;;4.53;;
22652;SDS011;11493;43.344;26.226;2023-05-07T00:31:43;6.38;;;3.67;;
22652;SDS011;11493;43.344;26.226;2023-05-07T00:34:10;11.30;;;4.05;;
22652;SDS011;11493;43.344;26.226;2023-05-07T00:36:37;5.10;;;4.35;;
22652;SDS011;11493;43.344;26.226;2023-05-07T00:39:04;5.97;;;4.20;;
22652;SDS011;11493;43.344;26.226;2023-05-07T00:41:31;4.82;;;3.95;;
22652;SDS011;11493;43.344;26.226;2023-05-07T00:43:58;9.80;;;4.70;;
22652;SDS011;11493;43.344;26.226;2023-05-07T00:46:25;4.65;;;4.13;;
22652;SDS011;11493;43.344;26.226;2023-05-07T00:48:53;9.73;;;4.75;;
22652;SDS011;11493;43.344;26.226;2023-05-07T00:51:20;6.97;;;4.82;;
22652;SDS011;11493;43.344;26.226;2023-05-07T00:53:47;5.47;;;4.63;;
22652;SDS011;11493;43.344;26.226;2023-05-07T00:56:15;6.80;;;4.05;;
22652;SDS011;11493;43.344;26.226;2023-05-07T00:58:42;7.78;;;4.53;;
22652;SDS011;11493;43.344;26.226;2023-05-07T01:01:09;6.75;;;4.45;;
22652;SDS011;11493;43.344;26.226;2023-05-07T01:03:37;13.38;;;4.35;;
22652;SDS011;11493;43.344;26.226;2023-05-07T01:06:04;5.68;;;4.72;;
22652;SDS011;11493;43.344;26.226;2023-05-07T01:08:34;5.50;;;3.92;;
22652;SDS011;11493;43.344;26.226;2023-05-07T01:11:02;4.78;;;4.38;;
22652;SDS011;11493;43.344;26.226;2023-05-07T01:13:30;6.22;;;4.68;;
22652;SDS011;11493;43.344;26.226;2023-05-07T01:15:58;6.90;;;4.45;;
22652;SDS011;11493;43.344;26.226;2023-05-07T01:18:25;5.07;;;4.65;;
22652;SDS011;11493;43.344;26.226;2023-05-07T01:20:53;9.18;;;4.78;;
22652;SDS011;11493;43.344;26.226;2023-05-07T01:23:22;11.15;;;4.50;;
22652;SDS011;11493;43.344;26.226;2023-05-07T01:25:52;5.50;;;5.00;;
22652;SDS011;11493;43.344;26.226;2023-05-07T01:28:22;6.53;;;5.00;;
22652;SDS011;11493;43.344;26.226;2023-05-07T01:30:55;8.00;;;5.28;;
22652;SDS011;11493;43.344;26.226;2023-05-07T01:33:28;6.53;;;5.80;;
22652;SDS011;11493;43.344;26.226;2023-05-07T01:35:58;6.22;;;5.70;;
22652;SDS011;11493;43.344;26.226;2023-05-07T01:38:28;11.50;;;6.30;;
22652;SDS011;11493;43.344;26.226;2023-05-07T01:40:56;11.18;;;6.82;;
22652;SDS011;11493;43.344;26.226;2023-05-07T01:43:24;7.28;;;6.22;;
22652;SDS011;11493;43.344;26.226;2023-05-07T01:45:52;9.05;;;6.50;;
22652;SDS011;11493;43.344;26.226;2023-05-07T01:48:19;8.93;;;6.00;;
22652;SDS011;11493;43.344;26.226;2023-05-07T01:50:47;8.88;;;5.45;;
22652;SDS011;11493;43.344;26.226;2023-05-07T01:53:15;5.28;;;4.78;;
22652;SDS011;11493;43.344;26.226;2023-05-07T01:55:42;12.00;;;5.25;;
22652;SDS011;11493;43.344;26.226;2023-05-07T01:58:10;5.88;;;5.22;;
22652;SDS011;11493;43.344;26.226;2023-05-07T02:00:37;9.52;;;4.93;;
22652;SDS011;11493;43.344;26.226;2023-05-07T02:03:06;6.20;;;4.55;;
22652;SDS011;11493;43.344;26.226;2023-05-07T02:05:53;7.25;;;3.95;;
22652;SDS011;11493;43.344;26.226;2023-05-07T02:08:33;5.10;;;4.60;;
22652;SDS011;11493;43.344;26.226;2023-05-07T02:11:00;6.18;;;4.53;;
22652;SDS011;11493;43.344;26.226;2023-05-07T02:13:29;8.15;;;5.40;;
22652;SDS011;11493;43.344;26.226;2023-05-07T02:15:59;5.95;;;4.72;;
22652;SDS011;11493;43.344;26.226;2023-05-07T02:18:27;5.93;;;4.90;;
22652;SDS011;11493;43.344;26.226;2023-05-07T02:20:54;5.63;;;4.72;;
22652;SDS011;11493;43.344;26.226;2023-05-07T02:23:21;7.00;;;5.07;;
22652;SDS011;11493;43.344;26.226;2023-05-07T02:25:48;12.63;;;4.60;;
22652;SDS011;11493;43.344;26.226;2023-05-07T02:28:16;5.90;;;4.63;;
22652;SDS011;11493;43.344;26.226;2023-05-07T02:30:50;5.32;;;4.82;;
22652;SDS011;11493;43.344;26.226;2023-05-07T02:33:18;6.32;;;5.35;;
22652;SDS011;11493;43.344;26.226;2023-05-07T02:35:45;5.93;;;5.05;;
22652;SDS011;11493;43.344;26.226;2023-05-07T02:38:14;7.25;;;5.57;;
22652;SDS011;11493;43.344;26.226;2023-05-07T02:40:42;6.22;;;5.60;;
22652;SDS011;11493;43.344;26.226;2023-05-07T02:43:09;11.55;;;5.40;;
22652;SDS011;11493;43.344;26.226;2023-05-07T02:45:37;10.55;;;5.65;;
22652;SDS011;11493;43.344;26.226;2023-05-07T02:48:06;7.20;;;5.03;;
22652;SDS011;11493;43.344;26.226;2023-05-07T02:50:33;6.50;;;4.97;;
22652;SDS011;11493;43.344;26.226;2023-05-07T02:53:00;6.13;;;5.03;;
22652;SDS011;11493;43.344;26.226;2023-05-07T02:55:28;8.80;;;5.13;;
22652;SDS011;11493;43.344;26.226;2023-05-07T02:57:55;6.70;;;6.05;;
22652;SDS011;11493;43.344;26.226;2023-05-07T03:00:23;8.88;;;5.10;;
22652;SDS011;11493;43.344;26.226;2023-05-07T03:03:17;6.65;;;5.20;;
22652;SDS011;11493;43.344;26.226;2023-05-07T03:05:44;10.45;;;5.78;;
22652;SDS011;11493;43.344;26.226;2023-05-07T03:08:11;7.60;;;5.63;;
22652;SDS011;11493;43.344;26.226;2023-05-07T03:10:38;7.57;;;5.30;;
22652;SDS011;11493;43.344;26.226;2023-05-07T03:13:05;11.35;;;5.78;;
22652;SDS011;11493;43.344;26.226;2023-05-07T03:15:33;7.28;;;5.40;;
22652;SDS011;11493;43.344;26.226;2023-05-07T03:18:00;8.57;;;5.85;;
22652;SDS011;11493;43.344;26.226;2023-05-07T03:20:27;9.15;;;5.38;;
22652;SDS011;11493;43.344;26.226;2023-05-07T03:22:54;5.72;;;5.15;;
22652;SDS011;11493;43.344;26.226;2023-05-07T03:25:22;10.45;;;5.40;;
22652;SDS011;11493;43.344;26.226;2023-05-07T03:27:49;9.52;;;5.68;;
22652;SDS011;11493;43.344;26.226;2023-05-07T03:30:19;13.65;;;8.00;;
22652;SDS011;11493;43.344;26.226;2023-05-07T03:32:46;8.57;;;6.18;;
22652;SDS011;11493;43.344;26.226;2023-05-07T03:35:13;5.22;;;4.72;;
22652;SDS011;11493;43.344;26.226;2023-05-07T03:37:40;6.82;;;4.82;;
22652;SDS011;11493;43.344;26.226;2023-05-07T03:40:09;5.38;;;4.82;;
22652;SDS011;11493;43.344;26.226;2023-05-07T03:42:46;23.98;;;11.40;;
22652;SDS011;11493;43.344;26.226;2023-05-07T03:45:15;14.07;;;8.88;;
22652;SDS011;11493;43.344;26.226;2023-05-07T03:47:47;15.73;;;8.45;;
22652;SDS011;11493;43.344;26.226;2023-05-07T03:50:17;9.65;;;5.05;;
22652;SDS011;11493;43.344;26.226;2023-05-07T03:52:44;28.05;;;15.75;;
22652;SDS011;11493;43.344;26.226;2023-05-07T03:55:13;16.50;;;11.38;;
22652;SDS011;11493;43.344;26.226;2023-05-07T03:57:47;10.80;;;7.40;;
22652;SDS011;11493;43.344;26.226;2023-05-07T04:00:14;8.05;;;5.07;;
22652;SDS011;11493;43.344;26.226;2023-05-07T04:02:47;4.50;;;4.10;;
22652;SDS011;11493;43.344;26.226;2023-05-07T04:05:20;6.65;;;4.60;;
22652;SDS011;11493;43.344;26.226;2023-05-07T04:07:50;5.55;;;4.32;;
22652;SDS011;11493;43.344;26.226;2023-05-07T04:10:24;5.75;;;4.60;;
22652;SDS011;11493;43.344;26.226;2023-05-07T04:12:54;5.55;;;5.03;;
22652;SDS011;11493;43.344;26.226;2023-05-07T04:15:22;6.50;;;5.28;;
22652;SDS011;11493;43.344;26.226;2023-05-07T04:17:50;8.13;;;4.60;;
22652;SDS011;11493;43.344;26.226;2023-05-07T04:20:20;10.88;;;5.22;;
22652;SDS011;11493;43.344;26.226;2023-05-07T04:22:53;6.63;;;5.13;;
22652;SDS011;11493;43.344;26.226;2023-05-07T04:25:20;6.72;;;5.47;;
22652;SDS011;11493;43.344;26.226;2023-05-07T04:27:47;11.07;;;5.22;;
22652;SDS011;11493;43.344;26.226;2023-05-07T04:30:16;9.88;;;6.10;;
22652;SDS011;11493;43.344;26.226;2023-05-07T04:32:43;8.65;;;5.70;;
22652;SDS011;11493;43.344;26.226;2023-05-07T04:35:11;8.05;;;6.65;;
22652;SDS011;11493;43.344;26.226;2023-05-07T04:37:38;9.02;;;6.32;;
22652;SDS011;11493;43.344;26.226;2023-05-07T04:40:06;9.48;;;6.60;;
22652;SDS011;11493;43.344;26.226;2023-05-07T04:42:34;7.38;;;6.60;;
22652;SDS011;11493;43.344;26.226;2023-05-07T04:45:02;12.43;;;6.38;;
22652;SDS011;11493;43.344;26.226;2023-05-07T04:47:31;8.98;;;7.35;;
22652;SDS011;11493;43.344;26.226;2023-05-07T04:50:00;9.15;;;6.93;;
22652;SDS011;11493;43.344;26.226;2023-05-07T04:52:28;12.30;;;8.70;;
22652;SDS011;11493;43.344;26.226;2023-05-07T04:54:54;10.70;;;8.63;;
22652;SDS011;11493;43.344;26.226;2023-05-07T04:57:22;13.60;;;8.82;;
22652;SDS011;11493;43.344;26.226;2023-05-07T04:59:49;14.00;;;7.70;;
22652;SDS011;11493;43.344;26.226;2023-05-07T05:02:16;11.60;;;7.30;;
22652;SDS011;11493;43.344;26.226;2023-05-07T05:04:46;9.48;;;8.45;;
22652;SDS011;11493;43.344;26.226;2023-05-07T05:07:13;12.98;;;9.52;;
22652;SDS011;11493;43.344;26.226;2023-05-07T05:09:41;11.10;;;9.27;;
22652;SDS011;11493;43.344;26.226;2023-05-07T05:12:08;14.23;;;10.05;;
22652;SDS011;11493;43.344;26.226;2023-05-07T05:14:37;15.85;;;11.27;;
22652;SDS011;11493;43.344;26.226;2023-05-07T05:17:05;14.57;;;11.18;;
22652;SDS011;11493;43.344;26.226;2023-05-07T05:19:35;12.90;;;10.45;;
22652;SDS011;11493;43.344;26.226;2023-05-07T05:22:02;18.02;;;10.52;;
22652;SDS011;11493;43.344;26.226;2023-05-07T05:24:30;14.10;;;11.02;;
22652;SDS011;11493;43.344;26.226;2023-05-07T05:29:53;11.27;;;10.10;;
22652;SDS011;11493;43.344;26.226;2023-05-07T05:32:21;17.05;;;10.55;;
22652;SDS011;11493;43.344;26.226;2023-05-07T05:37:52;24.77;;;12.90;;
22652;SDS011;11493;43.344;26.226;2023-05-07T05:40:19;13.13;;;11.80;;
22652;SDS011;11493;43.344;26.226;2023-05-07T05:42:47;12.98;;;11.23;;
22652;SDS011;11493;43.344;26.226;2023-05-07T05:45:15;15.13;;;10.90;;
22652;SDS011;11493;43.344;26.226;2023-05-07T05:47:44;16.63;;;9.68;;
22652;SDS011;11493;43.344;26.226;2023-05-07T05:50:11;14.30;;;6.65;;
22652;SDS011;11493;43.344;26.226;2023-05-07T05:52:39;12.25;;;6.97;;
22652;SDS011;11493;43.344;26.226;2023-05-07T05:55:07;7.97;;;5.13;;
22652;SDS011;11493;43.344;26.226;2023-05-07T05:57:36;16.88;;;5.57;;
22652;SDS011;11493;43.344;26.226;2023-05-07T06:00:04;15.30;;;3.95;;
22652;SDS011;11493;43.344;26.226;2023-05-07T06:02:43;7.25;;;3.67;;
22652;SDS011;11493;43.344;26.226;2023-05-07T06:05:17;6.25;;;3.35;;
22652;SDS011;11493;43.344;26.226;2023-05-07T06:07:46;6.03;;;3.03;;
22652;SDS011;11493;43.344;26.226;2023-05-07T06:10:13;6.13;;;3.72;;
22652;SDS011;11493;43.344;26.226;2023-05-07T06:12:41;4.85;;;3.00;;
22652;SDS011;11493;43.344;26.226;2023-05-07T06:15:08;4.10;;;2.92;;
22652;SDS011;11493;43.344;26.226;2023-05-07T06:17:37;8.07;;;3.05;;
22652;SDS011;11493;43.344;26.226;2023-05-07T06:20:05;6.10;;;2.33;;
22652;SDS011;11493;43.344;26.226;2023-05-07T06:22:33;6.45;;;2.30;;
22652;SDS011;11493;43.344;26.226;2023-05-07T06:24:59;4.43;;;2.15;;
22652;SDS011;11493;43.344;26.226;2023-05-07T06:27:27;10.98;;;2.00;;
22652;SDS011;11493;43.344;26.226;2023-05-07T06:29:55;8.05;;;2.55;;
22652;SDS011;11493;43.344;26.226;2023-05-07T06:32:23;3.67;;;2.30;;
22652;SDS011;11493;43.344;26.226;2023-05-07T06:34:50;14.60;;;2.17;;
22652;SDS011;11493;43.344;26.226;2023-05-07T06:37:18;4.70;;;2.03;;
22652;SDS011;11493;43.344;26.226;2023-05-07T06:39:52;4.22;;;2.45;;
22652;SDS011;11493;43.344;26.226;2023-05-07T06:42:19;7.90;;;2.15;;
22652;SDS011;11493;43.344;26.226;2023-05-07T06:44:49;4.38;;;1.77;;
22652;SDS011;11493;43.344;26.226;2023-05-07T06:47:17;7.68;;;1.88;;
22652;SDS011;11493;43.344;26.226;2023-05-07T06:49:48;6.07;;;1.50;;
22652;SDS011;11493;43.344;26.226;2023-05-07T06:52:18;3.33;;;1.55;;
22652;SDS011;11493;43.344;26.226;2023-05-07T06:54:46;3.25;;;1.67;;
22652;SDS011;11493;43.344;26.226;2023-05-07T06:57:15;6.03;;;1.48;;
22652;SDS011;11493;43.344;26.226;2023-05-07T06:59:42;7.10;;;1.83;;
22652;SDS011;11493;43.344;26.226;2023-05-07T07:02:10;4.03;;;1.40;;
22652;SDS011;11493;43.344;26.226;2023-05-07T07:04:37;4.32;;;2.10;;
22652;SDS011;11493;43.344;26.226;2023-05-07T07:07:08;10.20;;;1.83;;
22652;SDS011;11493;43.344;26.226;2023-05-07T07:09:35;2.00;;;1.55;;
22652;SDS011;11493;43.344;26.226;2023-05-07T07:12:04;3.03;;;1.38;;
22652;SDS011;11493;43.344;26.226;2023-05-07T07:14:32;6.30;;;1.92;;
22652;SDS011;11493;43.344;26.226;2023-05-07T07:16:59;7.82;;;1.70;;
22652;SDS011;11493;43.344;26.226;2023-05-07T07:19:27;1.30;;;1.10;;
22652;SDS011;11493;43.344;26.226;2023-05-07T07:21:55;3.05;;;1.35;;
22652;SDS011;11493;43.344;26.226;2023-05-07T07:24:22;1.88;;;1.50;;
22652;SDS011;11493;43.344;26.226;2023-05-07T07:29:23;2.10;;;1.33;;
22652;SDS011;11493;43.344;26.226;2023-05-07T07:31:53;4.05;;;1.25;;
22652;SDS011;11493;43.344;26.226;2023-05-07T07:34:20;20.45;;;2.15;;
22652;SDS011;11493;43.344;26.226;2023-05-07T07:36:48;1.48;;;1.38;;
22652;SDS011;11493;43.344;26.226;2023-05-07T07:39:17;1.27;;;1.15;;
22652;SDS011;11493;43.344;26.226;2023-05-07T07:41:46;4.10;;;1.30;;
22652;SDS011;11493;43.344;26.226;2023-05-07T07:44:15;6.13;;;1.63;;
22652;SDS011;11493;43.344;26.226;2023-05-07T07:46:46;5.43;;;1.40;;
22652;SDS011;11493;43.344;26.226;2023-05-07T07:49:14;14.00;;;2.08;;
22652;SDS011;11493;43.344;26.226;2023-05-07T07:51:42;4.43;;;1.45;;
22652;SDS011;11493;43.344;26.226;2023-05-07T07:54:11;5.93;;;1.90;;
22652;SDS011;11493;43.344;26.226;2023-05-07T07:56:39;13.38;;;1.50;;
22652;SDS011;11493;43.344;26.226;2023-05-07T07:59:07;9.65;;;1.58;;
22652;SDS011;11493;43.344;26.226;2023-05-07T08:01:37;3.08;;;1.30;;
22652;SDS011;11493;43.344;26.226;2023-05-07T08:04:04;3.22;;;1.50;;
22652;SDS011;11493;43.344;26.226;2023-05-07T08:06:36;3.03;;;1.13;;
22652;SDS011;11493;43.344;26.226;2023-05-07T08:09:04;4.82;;;1.27;;
22652;SDS011;11493;43.344;26.226;2023-05-07T08:11:32;6.82;;;1.67;;
22652;SDS011;11493;43.344;26.226;2023-05-07T08:14:01;5.68;;;1.17;;
22652;SDS011;11493;43.344;26.226;2023-05-07T08:16:29;6.57;;;1.40;;
22652;SDS011;11493;43.344;26.226;2023-05-07T08:18:58;6.53;;;1.50;;
22652;SDS011;11493;43.344;26.226;2023-05-07T08:21:25;2.70;;;1.30;;
22652;SDS011;11493;43.344;26.226;2023-05-07T08:23:53;2.85;;;1.20;;
22652;SDS011;11493;43.344;26.226;2023-05-07T08:26:20;2.85;;;1.05;;
22652;SDS011;11493;43.344;26.226;2023-05-07T08:28:47;7.30;;;0.85;;
22652;SDS011;11493;43.344;26.226;2023-05-07T08:31:14;4.03;;;1.25;;
22652;SDS011;11493;43.344;26.226;2023-05-07T08:33:43;3.72;;;1.10;;
22652;SDS011;11493;43.344;26.226;2023-05-07T08:36:10;2.13;;;1.15;;
22652;SDS011;11493;43.344;26.226;2023-05-07T08:38:37;8.43;;;1.25;;
22652;SDS011;11493;43.344;26.226;2023-05-07T08:41:08;3.10;;;1.00;;
22652;SDS011;11493;43.344;26.226;2023-05-07T08:43:38;2.10;;;1.20;;
22652;SDS011;11493;43.344;26.226;2023-05-07T08:46:09;2.55;;;1.30;;
22652;SDS011;11493;43.344;26.226;2023-05-07T08:48:41;3.65;;;1.20;;
22652;SDS011;11493;43.344;26.226;2023-05-07T08:51:12;5.10;;;1.15;;
22652;SDS011;11493;43.344;26.226;2023-05-07T08:54:28;3.03;;;1.10;;
22652;SDS011;11493;43.344;26.226;2023-05-07T08:56:56;5.22;;;1.60;;
22652;SDS011;11493;43.344;26.226;2023-05-07T08:59:24;3.70;;;0.95;;
22652;SDS011;11493;43.344;26.226;2023-05-07T09:01:51;1.70;;;1.10;;
22652;SDS011;11493;43.344;26.226;2023-05-07T09:04:18;5.82;;;1.30;;
22652;SDS011;11493;43.344;26.226;2023-05-07T09:06:46;2.05;;;1.13;;
22652;SDS011;11493;43.344;26.226;2023-05-07T09:09:14;3.55;;;1.10;;
22652;SDS011;11493;43.344;26.226;2023-05-07T09:11:44;3.63;;;1.00;;
22652;SDS011;11493;43.344;26.226;2023-05-07T09:14:13;1.98;;;1.00;;
22652;SDS011;11493;43.344;26.226;2023-05-07T09:16:43;3.70;;;0.80;;
22652;SDS011;11493;43.344;26.226;2023-05-07T09:19:10;5.13;;;0.90;;
22652;SDS011;11493;43.344;26.226;2023-05-07T09:21:42;2.58;;;1.10;;
22652;SDS011;11493;43.344;26.226;2023-05-07T09:24:11;6.18;;;1.08;;
22652;SDS011;11493;43.344;26.226;2023-05-07T09:26:40;1.77;;;0.80;;
22652;SDS011;11493;43.344;26.226;2023-05-07T09:29:08;2.20;;;0.98;;
22652;SDS011;11493;43.344;26.226;2023-05-07T09:31:38;8.32;;;0.90;;
22652;SDS011;11493;43.344;26.226;2023-05-07T09:34:07;3.15;;;1.15;;
22652;SDS011;11493;43.344;26.226;2023-05-07T09:36:37;2.83;;;1.00;;
22652;SDS011;11493;43.344;26.226;2023-05-07T09:39:08;1.88;;;0.90;;
22652;SDS011;11493;43.344;26.226;2023-05-07T09:41:42;7.60;;;0.90;;
22652;SDS011;11493;43.344;26.226;2023-05-07T09:46:49;3.17;;;1.00;;
22652;SDS011;11493;43.344;26.226;2023-05-07T09:49:27;2.42;;;0.82;;
22652;SDS011;11493;43.344;26.226;2023-05-07T09:52:04;3.03;;;0.75;;
22652;SDS011;11493;43.344;26.226;2023-05-07T09:54:35;2.05;;;1.30;;
22652;SDS011;11493;43.344;26.226;2023-05-07T09:57:05;8.47;;;0.90;;
22652;SDS011;11493;43.344;26.226;2023-05-07T09:59:33;1.77;;;1.13;;
22652;SDS011;11493;43.344;26.226;2023-05-07T10:02:07;5.65;;;1.10;;
22652;SDS011;11493;43.344;26.226;2023-05-07T10:04:44;2.38;;;0.90;;
22652;SDS011;11493;43.344;26.226;2023-05-07T10:07:14;2.40;;;0.95;;
22652;SDS011;11493;43.344;26.226;2023-05-07T10:09:44;7.88;;;1.95;;
22652;SDS011;11493;43.344;26.226;2023-05-07T10:12:23;1.77;;;1.00;;
22652;SDS011;11493;43.344;26.226;2023-05-07T10:14:51;2.50;;;1.10;;
22652;SDS011;11493;43.344;26.226;2023-05-07T10:17:21;5.30;;;1.10;;
22652;SDS011;11493;43.344;26.226;2023-05-07T10:19:50;2.38;;;1.08;;
22652;SDS011;11493;43.344;26.226;2023-05-07T10:22:20;2.90;;;0.80;;
22652;SDS011;11493;43.344;26.226;2023-05-07T10:24:48;4.53;;;1.25;;
22652;SDS011;11493;43.344;26.226;2023-05-07T10:27:19;1.67;;;0.90;;
22652;SDS011;11493;43.344;26.226;2023-05-07T10:32:51;12.95;;;1.60;;
22652;SDS011;11493;43.344;26.226;2023-05-07T10:35:29;5.38;;;1.00;;
22652;SDS011;11493;43.344;26.226;2023-05-07T10:38:02;2.38;;;1.00;;
22652;SDS011;11493;43.344;26.226;2023-05-07T10:40:32;3.00;;;1.30;;
22652;SDS011;11493;43.344;26.226;2023-05-07T10:43:02;9.48;;;1.30;;
22652;SDS011;11493;43.344;26.226;2023-05-07T10:45:43;6.35;;;1.10;;
22652;SDS011;11493;43.344;26.226;2023-05-07T10:48:15;3.03;;;0.98;;
22652;SDS011;11493;43.344;26.226;2023-05-07T10:51:18;3.95;;;1.10;;
22652;SDS011;11493;43.344;26.226;2023-05-07T10:56:45;2.45;;;1.15;;
22652;SDS011;11493;43.344;26.226;2023-05-07T11:01:53;4.90;;;1.02;;
22652;SDS011;11493;43.344;26.226;2023-05-07T11:08:13;5.00;;;1.08;;
22652;SDS011;11493;43.344;26.226;2023-05-07T11:11:10;3.05;;;1.05;;
22652;SDS011;11493;43.344;26.226;2023-05-07T11:13:48;4.00;;;1.10;;
22652;SDS011;11493;43.344;26.226;2023-05-07T11:16:24;2.58;;;1.10;;
22652;SDS011;11493;43.344;26.226;2023-05-07T11:19:13;2.80;;;1.00;;
22652;SDS011;11493;43.344;26.226;2023-05-07T11:21:45;5.50;;;1.52;;
22652;SDS011;11493;43.344;26.226;2023-05-07T11:24:37;1.88;;;1.20;;
22652;SDS011;11493;43.344;26.226;2023-05-07T11:27:07;1.70;;;1.10;;
22652;SDS011;11493;43.344;26.226;2023-05-07T11:29:35;3.70;;;1.10;;
22652;SDS011;11493;43.344;26.226;2023-05-07T11:32:09;2.88;;;1.05;;
22652;SDS011;11493;43.344;26.226;2023-05-07T11:34:43;2.85;;;1.10;;
22652;SDS011;11493;43.344;26.226;2023-05-07T11:37:11;3.53;;;1.00;;
22652;SDS011;11493;43.344;26.226;2023-05-07T11:40:01;4.55;;;1.10;;
22652;SDS011;11493;43.344;26.226;2023-05-07T11:42:31;1.27;;;1.10;;
22652;SDS011;11493;43.344;26.226;2023-05-07T11:45:00;1.83;;;1.10;;
22652;SDS011;11493;43.344;26.226;2023-05-07T11:47:30;3.50;;;1.33;;
22652;SDS011;11493;43.344;26.226;2023-05-07T11:50:01;1.42;;;0.90;;
22652;SDS011;11493;43.344;26.226;2023-05-07T11:52:30;2.38;;;0.98;;
22652;SDS011;11493;43.344;26.226;2023-05-07T11:54:57;2.40;;;1.30;;
22652;SDS011;11493;43.344;26.226;2023-05-07T11:57:26;8.20;;;1.10;;
22652;SDS011;11493;43.344;26.226;2023-05-07T11:59:57;3.05;;;1.02;;
22652;SDS011;11493;43.344;26.226;2023-05-07T12:02:26;5.85;;;0.90;;
22652;SDS011;11493;43.344;26.226;2023-05-07T12:04:53;3.25;;;1.00;;
22652;SDS011;11493;43.344;26.226;2023-05-07T12:07:24;2.47;;;1.05;;
22652;SDS011;11493;43.344;26.226;2023-05-07T12:09:51;2.42;;;1.10;;
22652;SDS011;11493;43.344;26.226;2023-05-07T12:12:18;5.75;;;1.15;;
22652;SDS011;11493;43.344;26.226;2023-05-07T12:14:45;6.50;;;1.10;;
22652;SDS011;11493;43.344;26.226;2023-05-07T12:17:13;2.50;;;1.10;;
22652;SDS011;11493;43.344;26.226;2023-05-07T12:19:41;1.52;;;1.30;;
22652;SDS011;11493;43.344;26.226;2023-05-07T12:22:10;4.03;;;1.40;;
22652;SDS011;11493;43.344;26.226;2023-05-07T12:24:47;4.22;;;1.00;;
22652;SDS011;11493;43.344;26.226;2023-05-07T12:27:15;1.50;;;1.15;;
22652;SDS011;11493;43.344;26.226;2023-05-07T12:29:48;1.95;;;1.13;;
22652;SDS011;11493;43.344;26.226;2023-05-07T12:32:16;2.63;;;0.90;;
22652;SDS011;11493;43.344;26.226;2023-05-07T12:34:44;1.73;;;1.00;;
22652;SDS011;11493;43.344;26.226;2023-05-07T12:37:12;3.45;;;1.10;;
22652;SDS011;11493;43.344;26.226;2023-05-07T12:39:49;1.40;;;1.00;;
22652;SDS011;11493;43.344;26.226;2023-05-07T12:42:32;4.13;;;1.13;;
22652;SDS011;11493;43.344;26.226;2023-05-07T12:45:12;7.22;;;1.00;;
22652;SDS011;11493;43.344;26.226;2023-05-07T12:47:43;2.53;;;1.45;;
22652;SDS011;11493;43.344;26.226;2023-05-07T12:50:12;21.00;;;1.95;;
22652;SDS011;11493;43.344;26.226;2023-05-07T12:52:40;7.55;;;1.35;;
22652;SDS011;11493;43.344;26.226;2023-05-07T12:55:09;7.68;;;1.25;;
22652;SDS011;11493;43.344;26.226;2023-05-07T12:57:41;3.70;;;0.98;;
22652;SDS011;11493;43.344;26.226;2023-05-07T13:00:09;4.18;;;1.20;;
22652;SDS011;11493;43.344;26.226;2023-05-07T13:02:38;6.78;;;1.20;;
22652;SDS011;11493;43.344;26.226;2023-05-07T13:05:07;1.15;;;0.90;;
22652;SDS011;11493;43.344;26.226;2023-05-07T13:07:35;3.53;;;1.13;;
22652;SDS011;11493;43.344;26.226;2023-05-07T13:10:03;8.55;;;1.25;;
22652;SDS011;11493;43.344;26.226;2023-05-07T13:12:31;2.15;;;1.13;;
22652;SDS011;11493;43.344;26.226;2023-05-07T13:14:59;4.07;;;0.98;;
22652;SDS011;11493;43.344;26.226;2023-05-07T13:17:26;1.98;;;0.82;;
22652;SDS011;11493;43.344;26.226;2023-05-07T13:19:53;13.20;;;1.23;;
22652;SDS011;11493;43.344;26.226;2023-05-07T13:22:20;5.45;;;1.00;;
22652;SDS011;11493;43.344;26.226;2023-05-07T13:24:47;3.97;;;1.00;;
22652;SDS011;11493;43.344;26.226;2023-05-07T13:27:14;1.88;;;1.08;;
22652;SDS011;11493;43.344;26.226;2023-05-07T13:29:41;4.35;;;1.30;;
22652;SDS011;11493;43.344;26.226;2023-05-07T13:32:08;4.40;;;1.13;;
22652;SDS011;11493;43.344;26.226;2023-05-07T13:34:36;3.80;;;1.10;;
22652;SDS011;11493;43.344;26.226;2023-05-07T13:37:03;1.10;;;1.00;;
22652;SDS011;11493;43.344;26.226;2023-05-07T13:39:30;1.70;;;1.00;;
22652;SDS011;11493;43.344;26.226;2023-05-07T13:41:57;1.25;;;0.80;;
22652;SDS011;11493;43.344;26.226;2023-05-07T13:44:24;3.83;;;1.10;;
22652;SDS011;11493;43.344;26.226;2023-05-07T13:46:52;2.72;;;1.30;;
22652;SDS011;11493;43.344;26.226;2023-05-07T13:49:19;3.45;;;1.70;;
22652;SDS011;11493;43.344;26.226;2023-05-07T13:51:46;4.97;;;2.45;;
22652;SDS011;11493;43.344;26.226;2023-05-07T13:54:13;6.03;;;1.15;;
22652;SDS011;11493;43.344;26.226;2023-05-07T13:56:40;2.30;;;1.05;;
22652;SDS011;11493;43.344;26.226;2023-05-07T13:59:07;1.50;;;1.10;;
22652;SDS011;11493;43.344;26.226;2023-05-07T14:01:34;1.77;;;1.05;;
22652;SDS011;11493;43.344;26.226;2023-05-07T14:04:02;1.40;;;1.00;;
22652;SDS011;11493;43.344;26.226;2023-05-07T14:06:29;5.80;;;1.27;;
22652;SDS011;11493;43.344;26.226;2023-05-07T14:08:56;5.28;;;1.02;;
22652;SDS011;11493;43.344;26.226;2023-05-07T14:11:24;2.97;;;1.15;;
22652;SDS011;11493;43.344;26.226;2023-05-07T14:13:51;1.67;;;1.25;;
22652;SDS011;11493;43.344;26.226;2023-05-07T14:16:18;2.40;;;1.10;;
22652;SDS011;11493;43.344;26.226;2023-05-07T14:18:45;3.88;;;1.08;;
22652;SDS011;11493;43.344;26.226;2023-05-07T14:21:12;3.50;;;1.05;;
22652;SDS011;11493;43.344;26.226;2023-05-07T14:23:40;23.88;;;3.60;;
22652;SDS011;11493;43.344;26.226;2023-05-07T14:26:07;16.98;;;1.80;;
22652;SDS011;11493;43.344;26.226;2023-05-07T14:28:34;5.57;;;1.63;;
22652;SDS011;11493;43.344;26.226;2023-05-07T14:31:01;10.60;;;2.05;;
22652;SDS011;11493;43.344;26.226;2023-05-07T14:33:28;5.07;;;1.10;;
22652;SDS011;11493;43.344;26.226;2023-05-07T14:35:55;5.47;;;1.30;;
22652;SDS011;11493;43.344;26.226;2023-05-07T14:38:22;4.55;;;1.25;;
22652;SDS011;11493;43.344;26.226;2023-05-07T14:40:49;3.30;;;1.20;;
22652;SDS011;11493;43.344;26.226;2023-05-07T14:43:16;2.92;;;1.17;;
22652;SDS011;11493;43.344;26.226;2023-05-07T14:45:43;2.80;;;1.10;;
22652;SDS011;11493;43.344;26.226;2023-05-07T14:48:10;1.27;;;0.90;;
22652;SDS011;11493;43.344;26.226;2023-05-07T14:50:42;3.10;;;1.05;;
22652;SDS011;11493;43.344;26.226;2023-05-07T14:53:08;6.78;;;1.30;;
22652;SDS011;11493;43.344;26.226;2023-05-07T14:55:36;1.45;;;0.90;;
22652;SDS011;11493;43.344;26.226;2023-05-07T14:58:03;7.78;;;1.13;;
22652;SDS011;11493;43.344;26.226;2023-05-07T15:00:30;2.05;;;1.13;;
22652;SDS011;11493;43.344;26.226;2023-05-07T15:02:59;4.75;;;1.10;;
22652;SDS011;11493;43.344;26.226;2023-05-07T15:05:39;1.17;;;1.02;;
22652;SDS011;11493;43.344;26.226;2023-05-07T15:08:07;5.00;;;1.10;;